sensor_id;sensor_type;location;lat;lon;timestamp;P1;durP1;ratioP1;P2;durP2;ratioP2
10715;SDS011;5409;42.620;23.316;2022-11-03T00:02:22;3.30;;;1.70;;
10715;SDS011;5409;42.620;23.316;2022-11-03T00:04:49;4.15;;;1.45;;
10715;SDS011;5409;42.620;23.316;2022-11-03T00:07:18;2.40;;;1.92;;
10715;SDS011;5409;42.620;23.316;2022-11-03T00:09:44;5.18;;;1.55;;
10715;SDS011;5409;42.620;23.316;2022-11-03T00:12:11;3.03;;;1.50;;
10715;SDS011;5409;42.620;23.316;2022-11-03T00:14:37;2.63;;;1.40;;
10715;SDS011;5409;42.620;23.316;2022-11-03T00:17:05;4.32;;;1.55;;
10715;SDS011;5409;42.620;23.316;2022-11-03T00:19:32;4.00;;;2.17;;
10715;SDS011;5409;42.620;23.316;2022-11-03T00:21:59;1.92;;;1.40;;
10715;SDS011;5409;42.620;23.316;2022-11-03T00:24:25;4.28;;;1.75;;
10715;SDS011;5409;42.620;23.316;2022-11-03T00:26:52;5.55;;;1.85;;
10715;SDS011;5409;42.620;23.316;2022-11-03T00:29:19;3.97;;;1.80;;
10715;SDS011;5409;42.620;23.316;2022-11-03T00:31:45;6.63;;;2.60;;
10715;SDS011;5409;42.620;23.316;2022-11-03T00:34:14;3.42;;;2.08;;
10715;SDS011;5409;42.620;23.316;2022-11-03T00:36:41;6.68;;;2.50;;
10715;SDS011;5409;42.620;23.316;2022-11-03T00:39:09;5.63;;;1.92;;
10715;SDS011;5409;42.620;23.316;2022-11-03T00:41:36;3.30;;;1.75;;
10715;SDS011;5409;42.620;23.316;2022-11-03T00:44:03;4.63;;;2.28;;
10715;SDS011;5409;42.620;23.316;2022-11-03T00:46:30;4.13;;;2.15;;
10715;SDS011;5409;42.620;23.316;2022-11-03T00:48:59;6.00;;;2.10;;
10715;SDS011;5409;42.620;23.316;2022-11-03T00:51:27;7.22;;;2.35;;
10715;SDS011;5409;42.620;23.316;2022-11-03T00:53:55;6.68;;;2.13;;
10715;SDS011;5409;42.620;23.316;2022-11-03T00:56:23;5.05;;;2.70;;
10715;SDS011;5409;42.620;23.316;2022-11-03T00:58:52;5.30;;;1.98;;
10715;SDS011;5409;42.620;23.316;2022-11-03T01:01:19;6.28;;;2.05;;
10715;SDS011;5409;42.620;23.316;2022-11-03T01:03:48;6.43;;;2.22;;
10715;SDS011;5409;42.620;23.316;2022-11-03T01:06:31;5.88;;;2.60;;
10715;SDS011;5409;42.620;23.316;2022-11-03T01:09:19;6.55;;;2.28;;
10715;SDS011;5409;42.620;23.316;2022-11-03T01:11:49;6.05;;;2.17;;
10715;SDS011;5409;42.620;23.316;2022-11-03T01:14:22;5.30;;;2.20;;
10715;SDS011;5409;42.620;23.316;2022-11-03T01:16:49;4.88;;;2.25;;
10715;SDS011;5409;42.620;23.316;2022-11-03T01:19:16;7.85;;;2.22;;
10715;SDS011;5409;42.620;23.316;2022-11-03T01:21:44;4.15;;;2.30;;
10715;SDS011;5409;42.620;23.316;2022-11-03T01:24:10;5.18;;;2.35;;
10715;SDS011;5409;42.620;23.316;2022-11-03T01:26:37;4.18;;;2.30;;
10715;SDS011;5409;42.620;23.316;2022-11-03T01:29:04;5.65;;;2.30;;
10715;SDS011;5409;42.620;23.316;2022-11-03T01:31:31;5.00;;;2.47;;
10715;SDS011;5409;42.620;23.316;2022-11-03T01:33:57;4.82;;;2.38;;
10715;SDS011;5409;42.620;23.316;2022-11-03T01:36:24;7.97;;;2.42;;
10715;SDS011;5409;42.620;23.316;2022-11-03T01:38:52;6.45;;;3.00;;
10715;SDS011;5409;42.620;23.316;2022-11-03T01:41:20;6.68;;;3.05;;
10715;SDS011;5409;42.620;23.316;2022-11-03T01:43:49;7.90;;;2.30;;
10715;SDS011;5409;42.620;23.316;2022-11-03T01:46:29;8.23;;;2.78;;
10715;SDS011;5409;42.620;23.316;2022-11-03T01:48:57;6.22;;;3.05;;
10715;SDS011;5409;42.620;23.316;2022-11-03T01:51:27;8.98;;;3.15;;
10715;SDS011;5409;42.620;23.316;2022-11-03T01:54:00;4.47;;;2.67;;
10715;SDS011;5409;42.620;23.316;2022-11-03T01:56:32;5.72;;;3.20;;
10715;SDS011;5409;42.620;23.316;2022-11-03T01:59:01;11.52;;;3.05;;
10715;SDS011;5409;42.620;23.316;2022-11-03T02:01:29;6.97;;;3.22;;
10715;SDS011;5409;42.620;23.316;2022-11-03T02:03:57;5.97;;;3.00;;
10715;SDS011;5409;42.620;23.316;2022-11-03T02:06:28;3.53;;;2.58;;
10715;SDS011;5409;42.620;23.316;2022-11-03T02:08:57;9.60;;;2.85;;
10715;SDS011;5409;42.620;23.316;2022-11-03T02:11:28;5.70;;;2.97;;
10715;SDS011;5409;42.620;23.316;2022-11-03T02:14:14;5.95;;;2.80;;
10715;SDS011;5409;42.620;23.316;2022-11-03T02:16:42;5.97;;;3.00;;
10715;SDS011;5409;42.620;23.316;2022-11-03T02:19:13;9.10;;;3.40;;
10715;SDS011;5409;42.620;23.316;2022-11-03T02:21:54;4.50;;;2.80;;
10715;SDS011;5409;42.620;23.316;2022-11-03T02:24:29;7.28;;;2.63;;
10715;SDS011;5409;42.620;23.316;2022-11-03T02:27:02;10.35;;;3.85;;
10715;SDS011;5409;42.620;23.316;2022-11-03T02:29:29;3.42;;;2.35;;
10715;SDS011;5409;42.620;23.316;2022-11-03T02:31:56;6.28;;;3.22;;
10715;SDS011;5409;42.620;23.316;2022-11-03T02:34:30;9.18;;;3.50;;
10715;SDS011;5409;42.620;23.316;2022-11-03T02:37:06;6.50;;;2.85;;
10715;SDS011;5409;42.620;23.316;2022-11-03T02:39:39;6.65;;;3.45;;
10715;SDS011;5409;42.620;23.316;2022-11-03T02:42:11;8.40;;;3.03;;
10715;SDS011;5409;42.620;23.316;2022-11-03T02:44:40;7.20;;;3.42;;
10715;SDS011;5409;42.620;23.316;2022-11-03T02:47:09;6.40;;;3.60;;
10715;SDS011;5409;42.620;23.316;2022-11-03T02:49:38;6.22;;;3.33;;
10715;SDS011;5409;42.620;23.316;2022-11-03T02:52:05;8.82;;;3.72;;
10715;SDS011;5409;42.620;23.316;2022-11-03T02:54:52;7.50;;;3.33;;
10715;SDS011;5409;42.620;23.316;2022-11-03T02:57:22;7.35;;;3.00;;
10715;SDS011;5409;42.620;23.316;2022-11-03T02:59:56;6.82;;;2.72;;
10715;SDS011;5409;42.620;23.316;2022-11-03T03:02:27;6.95;;;2.55;;
10715;SDS011;5409;42.620;23.316;2022-11-03T03:04:59;5.05;;;2.45;;
10715;SDS011;5409;42.620;23.316;2022-11-03T03:07:29;6.38;;;2.40;;
10715;SDS011;5409;42.620;23.316;2022-11-03T03:09:59;6.40;;;2.35;;
10715;SDS011;5409;42.620;23.316;2022-11-03T03:12:30;7.10;;;2.90;;
10715;SDS011;5409;42.620;23.316;2022-11-03T03:14:59;4.85;;;2.42;;
10715;SDS011;5409;42.620;23.316;2022-11-03T03:17:29;5.00;;;2.45;;
10715;SDS011;5409;42.620;23.316;2022-11-03T03:19:59;9.18;;;2.53;;
10715;SDS011;5409;42.620;23.316;2022-11-03T03:22:30;6.43;;;2.00;;
10715;SDS011;5409;42.620;23.316;2022-11-03T03:25:02;5.55;;;1.98;;
10715;SDS011;5409;42.620;23.316;2022-11-03T03:27:38;5.10;;;2.15;;
10715;SDS011;5409;42.620;23.316;2022-11-03T03:30:09;6.35;;;2.30;;
10715;SDS011;5409;42.620;23.316;2022-11-03T03:32:37;4.60;;;1.90;;
10715;SDS011;5409;42.620;23.316;2022-11-03T03:35:09;4.40;;;1.88;;
10715;SDS011;5409;42.620;23.316;2022-11-03T03:37:42;8.65;;;2.08;;
10715;SDS011;5409;42.620;23.316;2022-11-03T03:40:14;7.07;;;2.05;;
10715;SDS011;5409;42.620;23.316;2022-11-03T03:42:46;7.57;;;2.30;;
10715;SDS011;5409;42.620;23.316;2022-11-03T03:45:15;5.90;;;1.85;;
10715;SDS011;5409;42.620;23.316;2022-11-03T03:47:43;7.68;;;2.35;;
10715;SDS011;5409;42.620;23.316;2022-11-03T03:50:10;5.03;;;2.17;;
10715;SDS011;5409;42.620;23.316;2022-11-03T03:52:37;4.47;;;2.10;;
10715;SDS011;5409;42.620;23.316;2022-11-03T03:55:04;4.10;;;2.10;;
10715;SDS011;5409;42.620;23.316;2022-11-03T03:57:39;4.82;;;2.33;;
10715;SDS011;5409;42.620;23.316;2022-11-03T04:00:08;4.15;;;1.42;;
10715;SDS011;5409;42.620;23.316;2022-11-03T04:02:40;3.97;;;1.85;;
10715;SDS011;5409;42.620;23.316;2022-11-03T04:05:06;6.70;;;2.50;;
10715;SDS011;5409;42.620;23.316;2022-11-03T04:07:33;3.28;;;2.08;;
10715;SDS011;5409;42.620;23.316;2022-11-03T04:10:12;5.13;;;2.38;;
10715;SDS011;5409;42.620;23.316;2022-11-03T04:12:39;5.40;;;2.88;;
10715;SDS011;5409;42.620;23.316;2022-11-03T04:15:25;4.80;;;2.63;;
10715;SDS011;5409;42.620;23.316;2022-11-03T04:18:18;4.50;;;2.40;;
10715;SDS011;5409;42.620;23.316;2022-11-03T04:21:04;5.22;;;2.55;;
10715;SDS011;5409;42.620;23.316;2022-11-03T04:23:49;8.73;;;3.53;;
10715;SDS011;5409;42.620;23.316;2022-11-03T04:26:16;7.15;;;2.78;;
10715;SDS011;5409;42.620;23.316;2022-11-03T04:28:47;6.28;;;3.28;;
10715;SDS011;5409;42.620;23.316;2022-11-03T04:31:16;11.55;;;3.70;;
10715;SDS011;5409;42.620;23.316;2022-11-03T04:33:44;8.18;;;3.38;;
10715;SDS011;5409;42.620;23.316;2022-11-03T04:36:13;7.93;;;3.45;;
10715;SDS011;5409;42.620;23.316;2022-11-03T04:38:42;7.32;;;3.97;;
10715;SDS011;5409;42.620;23.316;2022-11-03T04:41:12;7.70;;;3.60;;
10715;SDS011;5409;42.620;23.316;2022-11-03T04:43:41;11.32;;;4.13;;
10715;SDS011;5409;42.620;23.316;2022-11-03T04:46:09;7.18;;;3.45;;
10715;SDS011;5409;42.620;23.316;2022-11-03T04:48:38;6.35;;;3.22;;
10715;SDS011;5409;42.620;23.316;2022-11-03T04:51:10;11.60;;;3.95;;
10715;SDS011;5409;42.620;23.316;2022-11-03T04:53:41;5.28;;;2.97;;
10715;SDS011;5409;42.620;23.316;2022-11-03T04:56:13;7.53;;;3.25;;
10715;SDS011;5409;42.620;23.316;2022-11-03T04:58:42;9.55;;;3.67;;
10715;SDS011;5409;42.620;23.316;2022-11-03T05:01:12;6.50;;;3.30;;
10715;SDS011;5409;42.620;23.316;2022-11-03T05:03:42;7.18;;;3.40;;
10715;SDS011;5409;42.620;23.316;2022-11-03T05:06:10;3.90;;;2.95;;
10715;SDS011;5409;42.620;23.316;2022-11-03T05:08:40;8.18;;;3.60;;
10715;SDS011;5409;42.620;23.316;2022-11-03T05:11:11;6.50;;;3.38;;
10715;SDS011;5409;42.620;23.316;2022-11-03T05:13:42;5.70;;;3.10;;
10715;SDS011;5409;42.620;23.316;2022-11-03T05:16:09;8.45;;;3.72;;
10715;SDS011;5409;42.620;23.316;2022-11-03T05:18:36;8.48;;;3.97;;
10715;SDS011;5409;42.620;23.316;2022-11-03T05:21:08;15.10;;;3.45;;
10715;SDS011;5409;42.620;23.316;2022-11-03T05:23:39;7.22;;;4.38;;
10715;SDS011;5409;42.620;23.316;2022-11-03T05:26:11;8.25;;;4.20;;
10715;SDS011;5409;42.620;23.316;2022-11-03T05:28:43;7.70;;;4.57;;
10715;SDS011;5409;42.620;23.316;2022-11-03T05:31:20;11.57;;;4.03;;
10715;SDS011;5409;42.620;23.316;2022-11-03T05:33:49;9.38;;;4.28;;
10715;SDS011;5409;42.620;23.316;2022-11-03T05:36:20;9.43;;;4.15;;
10715;SDS011;5409;42.620;23.316;2022-11-03T05:38:48;7.72;;;4.40;;
10715;SDS011;5409;42.620;23.316;2022-11-03T05:41:18;7.97;;;4.28;;
10715;SDS011;5409;42.620;23.316;2022-11-03T05:43:52;8.30;;;4.38;;
10715;SDS011;5409;42.620;23.316;2022-11-03T05:46:22;6.63;;;4.22;;
10715;SDS011;5409;42.620;23.316;2022-11-03T05:48:49;12.10;;;4.10;;
10715;SDS011;5409;42.620;23.316;2022-11-03T05:51:19;6.65;;;4.07;;
10715;SDS011;5409;42.620;23.316;2022-11-03T05:53:48;10.55;;;4.30;;
10715;SDS011;5409;42.620;23.316;2022-11-03T05:56:19;6.57;;;4.43;;
10715;SDS011;5409;42.620;23.316;2022-11-03T05:58:50;8.52;;;4.07;;
10715;SDS011;5409;42.620;23.316;2022-11-03T06:01:19;11.82;;;4.38;;
10715;SDS011;5409;42.620;23.316;2022-11-03T06:03:51;7.90;;;4.53;;
10715;SDS011;5409;42.620;23.316;2022-11-03T06:06:20;11.52;;;5.03;;
10715;SDS011;5409;42.620;23.316;2022-11-03T06:08:50;10.88;;;4.50;;
10715;SDS011;5409;42.620;23.316;2022-11-03T06:11:21;13.88;;;4.90;;
10715;SDS011;5409;42.620;23.316;2022-11-03T06:13:53;9.05;;;5.30;;
10715;SDS011;5409;42.620;23.316;2022-11-03T06:16:31;7.53;;;4.82;;
10715;SDS011;5409;42.620;23.316;2022-11-03T06:19:06;15.93;;;5.20;;
10715;SDS011;5409;42.620;23.316;2022-11-03T06:21:46;12.77;;;6.38;;
10715;SDS011;5409;42.620;23.316;2022-11-03T06:24:15;11.82;;;6.85;;
10715;SDS011;5409;42.620;23.316;2022-11-03T06:26:45;15.95;;;6.88;;
10715;SDS011;5409;42.620;23.316;2022-11-03T06:29:13;15.73;;;8.35;;
10715;SDS011;5409;42.620;23.316;2022-11-03T06:31:42;16.90;;;7.85;;
10715;SDS011;5409;42.620;23.316;2022-11-03T06:34:15;14.07;;;8.00;;
10715;SDS011;5409;42.620;23.316;2022-11-03T06:36:49;15.50;;;7.95;;
10715;SDS011;5409;42.620;23.316;2022-11-03T06:39:17;15.00;;;8.43;;
10715;SDS011;5409;42.620;23.316;2022-11-03T06:41:47;16.85;;;8.32;;
10715;SDS011;5409;42.620;23.316;2022-11-03T06:44:17;15.45;;;7.97;;
10715;SDS011;5409;42.620;23.316;2022-11-03T06:46:47;15.77;;;7.82;;
10715;SDS011;5409;42.620;23.316;2022-11-03T06:49:26;16.67;;;8.63;;
10715;SDS011;5409;42.620;23.316;2022-11-03T06:51:56;14.93;;;8.70;;
10715;SDS011;5409;42.620;23.316;2022-11-03T06:54:27;13.70;;;7.45;;
10715;SDS011;5409;42.620;23.316;2022-11-03T06:56:54;17.92;;;8.90;;
10715;SDS011;5409;42.620;23.316;2022-11-03T06:59:21;18.92;;;8.43;;
10715;SDS011;5409;42.620;23.316;2022-11-03T07:01:49;11.60;;;7.65;;
10715;SDS011;5409;42.620;23.316;2022-11-03T07:04:20;14.93;;;7.90;;
10715;SDS011;5409;42.620;23.316;2022-11-03T07:06:48;14.40;;;8.25;;
10715;SDS011;5409;42.620;23.316;2022-11-03T07:09:19;16.10;;;9.23;;
10715;SDS011;5409;42.620;23.316;2022-11-03T07:11:48;17.80;;;8.68;;
10715;SDS011;5409;42.620;23.316;2022-11-03T07:14:18;17.83;;;8.18;;
10715;SDS011;5409;42.620;23.316;2022-11-03T07:16:47;12.00;;;8.05;;
10715;SDS011;5409;42.620;23.316;2022-11-03T07:19:17;19.35;;;8.32;;
10715;SDS011;5409;42.620;23.316;2022-11-03T07:21:45;14.63;;;8.48;;
10715;SDS011;5409;42.620;23.316;2022-11-03T07:24:15;13.55;;;8.02;;
10715;SDS011;5409;42.620;23.316;2022-11-03T07:26:47;16.75;;;8.05;;
10715;SDS011;5409;42.620;23.316;2022-11-03T07:29:16;18.58;;;8.75;;
10715;SDS011;5409;42.620;23.316;2022-11-03T07:31:45;14.23;;;7.85;;
10715;SDS011;5409;42.620;23.316;2022-11-03T07:34:14;13.35;;;8.13;;
10715;SDS011;5409;42.620;23.316;2022-11-03T07:36:46;16.27;;;8.75;;
10715;SDS011;5409;42.620;23.316;2022-11-03T07:39:14;17.30;;;8.95;;
10715;SDS011;5409;42.620;23.316;2022-11-03T07:41:45;19.88;;;9.38;;
10715;SDS011;5409;42.620;23.316;2022-11-03T07:44:14;17.40;;;9.15;;
10715;SDS011;5409;42.620;23.316;2022-11-03T07:46:44;18.95;;;9.43;;
10715;SDS011;5409;42.620;23.316;2022-11-03T07:49:17;18.88;;;10.70;;
10715;SDS011;5409;42.620;23.316;2022-11-03T07:51:49;20.05;;;9.57;;
10715;SDS011;5409;42.620;23.316;2022-11-03T07:54:18;26.80;;;10.35;;
10715;SDS011;5409;42.620;23.316;2022-11-03T07:56:50;16.77;;;9.07;;
10715;SDS011;5409;42.620;23.316;2022-11-03T07:59:20;20.63;;;8.85;;
10715;SDS011;5409;42.620;23.316;2022-11-03T08:01:49;21.02;;;10.32;;
10715;SDS011;5409;42.620;23.316;2022-11-03T08:04:19;16.48;;;9.73;;
10715;SDS011;5409;42.620;23.316;2022-11-03T08:06:48;23.83;;;10.32;;
10715;SDS011;5409;42.620;23.316;2022-11-03T08:09:15;17.67;;;9.50;;
10715;SDS011;5409;42.620;23.316;2022-11-03T08:11:42;21.08;;;9.10;;
10715;SDS011;5409;42.620;23.316;2022-11-03T08:14:11;18.35;;;9.88;;
10715;SDS011;5409;42.620;23.316;2022-11-03T08:16:38;19.38;;;9.20;;
10715;SDS011;5409;42.620;23.316;2022-11-03T08:19:04;21.27;;;9.30;;
10715;SDS011;5409;42.620;23.316;2022-11-03T08:21:32;21.48;;;10.18;;
10715;SDS011;5409;42.620;23.316;2022-11-03T08:23:59;17.80;;;9.48;;
10715;SDS011;5409;42.620;23.316;2022-11-03T08:26:25;18.92;;;10.02;;
10715;SDS011;5409;42.620;23.316;2022-11-03T08:28:52;16.33;;;8.68;;
10715;SDS011;5409;42.620;23.316;2022-11-03T08:31:20;14.80;;;9.07;;
10715;SDS011;5409;42.620;23.316;2022-11-03T08:33:47;15.98;;;9.43;;
10715;SDS011;5409;42.620;23.316;2022-11-03T08:36:14;16.38;;;9.50;;
10715;SDS011;5409;42.620;23.316;2022-11-03T08:38:41;15.35;;;8.25;;
10715;SDS011;5409;42.620;23.316;2022-11-03T08:41:07;20.20;;;9.05;;
10715;SDS011;5409;42.620;23.316;2022-11-03T08:43:34;22.80;;;9.55;;
10715;SDS011;5409;42.620;23.316;2022-11-03T08:46:01;21.65;;;9.88;;
10715;SDS011;5409;42.620;23.316;2022-11-03T08:48:29;21.98;;;8.95;;
10715;SDS011;5409;42.620;23.316;2022-11-03T08:50:55;18.17;;;8.77;;
10715;SDS011;5409;42.620;23.316;2022-11-03T08:53:23;23.13;;;9.93;;
10715;SDS011;5409;42.620;23.316;2022-11-03T08:55:51;15.57;;;9.15;;
10715;SDS011;5409;42.620;23.316;2022-11-03T08:58:17;24.15;;;10.07;;
10715;SDS011;5409;42.620;23.316;2022-11-03T09:00:45;21.63;;;10.50;;
10715;SDS011;5409;42.620;23.316;2022-11-03T09:03:12;19.92;;;9.98;;
10715;SDS011;5409;42.620;23.316;2022-11-03T09:05:40;21.63;;;10.00;;
10715;SDS011;5409;42.620;23.316;2022-11-03T09:08:07;20.92;;;10.73;;
10715;SDS011;5409;42.620;23.316;2022-11-03T09:10:33;20.02;;;10.25;;
10715;SDS011;5409;42.620;23.316;2022-11-03T09:13:00;20.92;;;10.55;;
10715;SDS011;5409;42.620;23.316;2022-11-03T09:15:27;24.95;;;9.55;;
10715;SDS011;5409;42.620;23.316;2022-11-03T09:17:54;20.27;;;9.95;;
10715;SDS011;5409;42.620;23.316;2022-11-03T09:20:21;25.75;;;10.30;;
10715;SDS011;5409;42.620;23.316;2022-11-03T09:22:49;17.08;;;9.25;;
10715;SDS011;5409;42.620;23.316;2022-11-03T09:25:16;20.48;;;10.05;;
10715;SDS011;5409;42.620;23.316;2022-11-03T09:27:43;16.88;;;9.60;;
10715;SDS011;5409;42.620;23.316;2022-11-03T09:30:10;18.60;;;10.50;;
10715;SDS011;5409;42.620;23.316;2022-11-03T09:32:37;16.90;;;10.18;;
10715;SDS011;5409;42.620;23.316;2022-11-03T09:35:05;21.40;;;9.48;;
10715;SDS011;5409;42.620;23.316;2022-11-03T09:37:33;16.58;;;9.52;;
10715;SDS011;5409;42.620;23.316;2022-11-03T09:40:01;20.83;;;10.63;;
10715;SDS011;5409;42.620;23.316;2022-11-03T09:42:28;21.60;;;10.52;;
10715;SDS011;5409;42.620;23.316;2022-11-03T09:44:58;20.75;;;9.55;;
10715;SDS011;5409;42.620;23.316;2022-11-03T09:47:26;17.83;;;10.65;;
10715;SDS011;5409;42.620;23.316;2022-11-03T09:49:56;17.05;;;9.63;;
10715;SDS011;5409;42.620;23.316;2022-11-03T09:52:23;24.17;;;9.63;;
10715;SDS011;5409;42.620;23.316;2022-11-03T09:54:50;17.85;;;9.25;;
10715;SDS011;5409;42.620;23.316;2022-11-03T09:57:21;16.73;;;7.93;;
10715;SDS011;5409;42.620;23.316;2022-11-03T09:59:49;15.85;;;8.32;;
10715;SDS011;5409;42.620;23.316;2022-11-03T10:02:20;16.95;;;8.88;;
10715;SDS011;5409;42.620;23.316;2022-11-03T10:04:50;25.17;;;10.20;;
10715;SDS011;5409;42.620;23.316;2022-11-03T10:07:19;19.60;;;8.98;;
10715;SDS011;5409;42.620;23.316;2022-11-03T10:09:47;20.45;;;9.00;;
10715;SDS011;5409;42.620;23.316;2022-11-03T10:12:16;14.27;;;9.13;;
10715;SDS011;5409;42.620;23.316;2022-11-03T10:14:44;17.10;;;8.43;;
10715;SDS011;5409;42.620;23.316;2022-11-03T10:17:14;17.42;;;9.63;;
10715;SDS011;5409;42.620;23.316;2022-11-03T10:19:42;25.88;;;9.30;;
10715;SDS011;5409;42.620;23.316;2022-11-03T10:22:12;18.20;;;7.88;;
10715;SDS011;5409;42.620;23.316;2022-11-03T10:24:39;19.40;;;7.30;;
10715;SDS011;5409;42.620;23.316;2022-11-03T10:27:18;17.67;;;6.50;;
10715;SDS011;5409;42.620;23.316;2022-11-03T10:32:32;16.15;;;7.55;;
10715;SDS011;5409;42.620;23.316;2022-11-03T10:35:00;25.75;;;10.15;;
10715;SDS011;5409;42.620;23.316;2022-11-03T10:37:27;18.85;;;7.55;;
10715;SDS011;5409;42.620;23.316;2022-11-03T10:39:54;18.38;;;5.95;;
10715;SDS011;5409;42.620;23.316;2022-11-03T10:42:23;15.48;;;7.63;;
10715;SDS011;5409;42.620;23.316;2022-11-03T10:44:51;9.98;;;5.40;;
10715;SDS011;5409;42.620;23.316;2022-11-03T10:47:32;8.85;;;4.72;;
10715;SDS011;5409;42.620;23.316;2022-11-03T10:50:00;13.68;;;6.18;;
10715;SDS011;5409;42.620;23.316;2022-11-03T10:52:44;15.07;;;6.63;;
10715;SDS011;5409;42.620;23.316;2022-11-03T10:55:11;16.30;;;5.72;;
10715;SDS011;5409;42.620;23.316;2022-11-03T10:57:38;19.15;;;5.53;;
10715;SDS011;5409;42.620;23.316;2022-11-03T11:00:05;14.05;;;5.85;;
10715;SDS011;5409;42.620;23.316;2022-11-03T11:02:35;20.73;;;5.78;;
10715;SDS011;5409;42.620;23.316;2022-11-03T11:05:08;14.18;;;5.60;;
10715;SDS011;5409;42.620;23.316;2022-11-03T11:07:41;12.45;;;4.80;;
10715;SDS011;5409;42.620;23.316;2022-11-03T11:10:10;10.85;;;5.00;;
10715;SDS011;5409;42.620;23.316;2022-11-03T11:15:46;9.90;;;4.18;;
10715;SDS011;5409;42.620;23.316;2022-11-03T11:27:45;10.77;;;4.75;;
10715;SDS011;5409;42.620;23.316;2022-11-03T11:33:28;8.88;;;3.97;;
10715;SDS011;5409;42.620;23.316;2022-11-03T11:36:03;9.82;;;4.18;;
10715;SDS011;5409;42.620;23.316;2022-11-03T11:38:55;13.00;;;3.75;;
10715;SDS011;5409;42.620;23.316;2022-11-03T11:47:31;13.68;;;4.07;;
10715;SDS011;5409;42.620;23.316;2022-11-03T11:50:18;11.65;;;4.38;;
10715;SDS011;5409;42.620;23.316;2022-11-03T11:52:56;13.77;;;4.15;;
10715;SDS011;5409;42.620;23.316;2022-11-03T11:55:35;10.20;;;3.72;;
10715;SDS011;5409;42.620;23.316;2022-11-03T11:58:11;10.75;;;3.90;;
10715;SDS011;5409;42.620;23.316;2022-11-03T12:00:49;11.80;;;4.13;;
10715;SDS011;5409;42.620;23.316;2022-11-03T12:03:33;11.82;;;4.22;;
10715;SDS011;5409;42.620;23.316;2022-11-03T12:06:03;9.77;;;3.97;;
10715;SDS011;5409;42.620;23.316;2022-11-03T12:08:30;12.70;;;3.97;;
10715;SDS011;5409;42.620;23.316;2022-11-03T12:11:00;14.05;;;4.70;;
10715;SDS011;5409;42.620;23.316;2022-11-03T12:13:34;11.23;;;4.47;;
10715;SDS011;5409;42.620;23.316;2022-11-03T12:16:06;11.02;;;3.50;;
10715;SDS011;5409;42.620;23.316;2022-11-03T12:18:34;12.00;;;4.03;;
10715;SDS011;5409;42.620;23.316;2022-11-03T12:21:02;11.52;;;3.72;;
10715;SDS011;5409;42.620;23.316;2022-11-03T12:23:31;7.07;;;3.00;;
10715;SDS011;5409;42.620;23.316;2022-11-03T12:26:00;10.70;;;4.18;;
10715;SDS011;5409;42.620;23.316;2022-11-03T12:28:30;7.80;;;4.00;;
10715;SDS011;5409;42.620;23.316;2022-11-03T12:30:57;9.90;;;3.78;;
10715;SDS011;5409;42.620;23.316;2022-11-03T12:33:25;13.70;;;4.07;;
10715;SDS011;5409;42.620;23.316;2022-11-03T12:35:52;12.52;;;4.00;;
10715;SDS011;5409;42.620;23.316;2022-11-03T12:38:18;10.88;;;4.43;;
10715;SDS011;5409;42.620;23.316;2022-11-03T12:40:45;13.13;;;4.72;;
10715;SDS011;5409;42.620;23.316;2022-11-03T12:43:13;9.27;;;4.40;;
10715;SDS011;5409;42.620;23.316;2022-11-03T12:45:40;14.30;;;4.47;;
10715;SDS011;5409;42.620;23.316;2022-11-03T12:48:07;11.65;;;4.68;;
10715;SDS011;5409;42.620;23.316;2022-11-03T12:50:34;10.68;;;4.45;;
10715;SDS011;5409;42.620;23.316;2022-11-03T12:53:01;14.20;;;4.10;;
10715;SDS011;5409;42.620;23.316;2022-11-03T12:55:30;10.55;;;4.22;;
10715;SDS011;5409;42.620;23.316;2022-11-03T12:57:57;11.60;;;3.88;;
10715;SDS011;5409;42.620;23.316;2022-11-03T13:00:25;15.88;;;4.38;;
10715;SDS011;5409;42.620;23.316;2022-11-03T13:02:52;11.90;;;4.70;;
10715;SDS011;5409;42.620;23.316;2022-11-03T13:05:19;15.75;;;4.80;;
10715;SDS011;5409;42.620;23.316;2022-11-03T13:07:45;7.57;;;3.90;;
10715;SDS011;5409;42.620;23.316;2022-11-03T13:10:12;9.43;;;4.07;;
10715;SDS011;5409;42.620;23.316;2022-11-03T13:12:39;8.13;;;4.07;;
10715;SDS011;5409;42.620;23.316;2022-11-03T13:15:06;10.00;;;4.47;;
10715;SDS011;5409;42.620;23.316;2022-11-03T13:17:35;8.90;;;4.70;;
10715;SDS011;5409;42.620;23.316;2022-11-03T13:20:02;12.43;;;4.45;;
10715;SDS011;5409;42.620;23.316;2022-11-03T13:22:29;10.15;;;4.30;;
10715;SDS011;5409;42.620;23.316;2022-11-03T13:24:56;11.50;;;3.92;;
10715;SDS011;5409;42.620;23.316;2022-11-03T13:27:23;9.57;;;4.47;;
10715;SDS011;5409;42.620;23.316;2022-11-03T13:29:49;12.48;;;4.70;;
10715;SDS011;5409;42.620;23.316;2022-11-03T13:32:16;15.55;;;4.55;;
10715;SDS011;5409;42.620;23.316;2022-11-03T13:34:44;11.93;;;4.78;;
10715;SDS011;5409;42.620;23.316;2022-11-03T13:37:11;12.77;;;5.00;;
10715;SDS011;5409;42.620;23.316;2022-11-03T13:39:37;11.20;;;4.15;;
10715;SDS011;5409;42.620;23.316;2022-11-03T13:42:04;10.63;;;4.18;;
10715;SDS011;5409;42.620;23.316;2022-11-03T13:44:31;11.50;;;4.32;;
10715;SDS011;5409;42.620;23.316;2022-11-03T13:46:58;8.77;;;4.35;;
10715;SDS011;5409;42.620;23.316;2022-11-03T13:49:24;10.70;;;4.38;;
10715;SDS011;5409;42.620;23.316;2022-11-03T13:51:52;8.13;;;4.00;;
10715;SDS011;5409;42.620;23.316;2022-11-03T13:54:19;12.52;;;4.45;;
10715;SDS011;5409;42.620;23.316;2022-11-03T13:56:46;13.85;;;4.85;;
10715;SDS011;5409;42.620;23.316;2022-11-03T13:59:12;11.63;;;4.13;;
10715;SDS011;5409;42.620;23.316;2022-11-03T14:01:39;9.35;;;4.15;;
10715;SDS011;5409;42.620;23.316;2022-11-03T14:04:06;10.75;;;4.60;;
10715;SDS011;5409;42.620;23.316;2022-11-03T14:06:33;8.52;;;4.20;;
10715;SDS011;5409;42.620;23.316;2022-11-03T14:09:01;8.65;;;4.72;;
10715;SDS011;5409;42.620;23.316;2022-11-03T14:11:28;13.23;;;4.07;;
10715;SDS011;5409;42.620;23.316;2022-11-03T14:14:12;6.45;;;4.05;;
10715;SDS011;5409;42.620;23.316;2022-11-03T14:16:38;9.05;;;4.15;;
10715;SDS011;5409;42.620;23.316;2022-11-03T14:19:05;12.10;;;4.00;;
10715;SDS011;5409;42.620;23.316;2022-11-03T14:21:32;8.68;;;4.28;;
10715;SDS011;5409;42.620;23.316;2022-11-03T14:24:03;8.80;;;3.70;;
10715;SDS011;5409;42.620;23.316;2022-11-03T14:26:30;9.77;;;4.07;;
10715;SDS011;5409;42.620;23.316;2022-11-03T14:28:56;10.77;;;3.70;;
10715;SDS011;5409;42.620;23.316;2022-11-03T14:31:23;7.05;;;3.97;;
10715;SDS011;5409;42.620;23.316;2022-11-03T14:33:50;16.83;;;3.92;;
10715;SDS011;5409;42.620;23.316;2022-11-03T14:36:17;9.90;;;3.85;;
10715;SDS011;5409;42.620;23.316;2022-11-03T14:38:44;13.18;;;3.72;;
10715;SDS011;5409;42.620;23.316;2022-11-03T14:41:12;11.93;;;4.05;;
10715;SDS011;5409;42.620;23.316;2022-11-03T14:43:56;10.13;;;3.85;;
10715;SDS011;5409;42.620;23.316;2022-11-03T14:46:23;9.65;;;3.65;;
10715;SDS011;5409;42.620;23.316;2022-11-03T14:48:49;9.77;;;4.38;;
10715;SDS011;5409;42.620;23.316;2022-11-03T14:51:16;7.65;;;3.30;;
10715;SDS011;5409;42.620;23.316;2022-11-03T14:53:43;6.13;;;3.53;;
10715;SDS011;5409;42.620;23.316;2022-11-03T14:56:09;11.05;;;3.78;;
10715;SDS011;5409;42.620;23.316;2022-11-03T14:58:37;8.18;;;3.13;;
10715;SDS011;5409;42.620;23.316;2022-11-03T15:01:04;7.72;;;3.63;;
10715;SDS011;5409;42.620;23.316;2022-11-03T15:03:31;9.05;;;4.13;;
10715;SDS011;5409;42.620;23.316;2022-11-03T15:05:58;10.48;;;3.65;;
10715;SDS011;5409;42.620;23.316;2022-11-03T15:08:24;4.82;;;3.53;;
10715;SDS011;5409;42.620;23.316;2022-11-03T15:10:53;10.80;;;3.80;;
10715;SDS011;5409;42.620;23.316;2022-11-03T15:13:20;9.52;;;3.40;;
10715;SDS011;5409;42.620;23.316;2022-11-03T15:15:48;8.32;;;3.50;;
10715;SDS011;5409;42.620;23.316;2022-11-03T15:18:15;9.60;;;3.40;;
10715;SDS011;5409;42.620;23.316;2022-11-03T15:20:42;6.60;;;2.92;;